sensor_id;sensor_type;location;lat;lon;timestamp;pressure;altitude;pressure_sealevel;temperature;humidity
50125;BME280;36023;48.670;6.184;2023-01-29T00:01:35;100171.00;;;13.79;41.70
50125;BME280;36023;48.670;6.184;2023-01-29T00:04:01;100163.19;;;13.79;41.62
50125;BME280;36023;48.670;6.184;2023-01-29T00:06:26;100171.91;;;13.78;41.72
50125;BME280;36023;48.670;6.184;2023-01-29T00:08:52;100164.09;;;13.78;41.64
50125;BME280;36023;48.670;6.184;2023-01-29T00:11:18;100164.09;;;13.78;41.71
50125;BME280;36023;48.670;6.184;2023-01-29T00:13:45;100162.34;;;13.77;41.44
50125;BME280;36023;48.670;6.184;2023-01-29T00:16:11;100170.16;;;13.77;41.27
50125;BME280;36023;48.670;6.184;2023-01-29T00:18:39;100177.09;;;13.77;41.22
50125;BME280;36023;48.670;6.184;2023-01-29T00:21:10;100165.84;;;13.76;41.13
50125;BME280;36023;48.670;6.184;2023-01-29T00:23:36;100162.38;;;13.76;41.26
50125;BME280;36023;48.670;6.184;2023-01-29T00:26:02;100151.97;;;13.76;41.16
50125;BME280;36023;48.670;6.184;2023-01-29T00:28:28;100155.44;;;13.75;41.12
50125;BME280;36023;48.670;6.184;2023-01-29T00:30:54;100165.00;;;13.74;41.03
50125;BME280;36023;48.670;6.184;2023-01-29T00:33:21;100162.44;;;13.73;40.96
50125;BME280;36023;48.670;6.184;2023-01-29T00:35:46;100159.78;;;13.74;40.96
50125;BME280;36023;48.670;6.184;2023-01-29T00:38:13;100158.13;;;13.72;40.83
50125;BME280;36023;48.670;6.184;2023-01-29T00:40:39;100158.13;;;13.72;40.92
50125;BME280;36023;48.670;6.184;2023-01-29T00:43:25;100152.91;;;13.72;40.67
50125;BME280;36023;48.670;6.184;2023-01-29T00:46:11;100153.78;;;13.69;40.91
50125;BME280;36023;48.670;6.184;2023-01-29T00:48:38;100162.50;;;13.68;40.74
50125;BME280;36023;48.670;6.184;2023-01-29T00:51:04;100162.50;;;13.70;40.64
50125;BME280;36023;48.670;6.184;2023-01-29T00:53:30;100159.88;;;13.68;40.75
50125;BME280;36023;48.670;6.184;2023-01-29T00:55:57;100158.16;;;13.67;40.68
50125;BME280;36023;48.670;6.184;2023-01-29T00:58:22;100156.44;;;13.68;40.64
50125;BME280;36023;48.670;6.184;2023-01-29T01:00:53;100155.56;;;13.67;40.66
50125;BME280;36023;48.670;6.184;2023-01-29T01:03:20;100160.78;;;13.67;40.35
50125;BME280;36023;48.670;6.184;2023-01-29T01:05:46;100157.34;;;13.65;40.45
50125;BME280;36023;48.670;6.184;2023-01-29T01:08:12;100157.34;;;13.65;40.40
50125;BME280;36023;48.670;6.184;2023-01-29T01:11:06;100150.41;;;13.64;40.34
50125;BME280;36023;48.670;6.184;2023-01-29T01:13:32;100152.16;;;13.63;40.28
50125;BME280;36023;48.670;6.184;2023-01-29T01:15:59;100148.72;;;13.63;40.29
50125;BME280;36023;48.670;6.184;2023-01-29T01:18:28;100153.06;;;13.62;40.20
50125;BME280;36023;48.670;6.184;2023-01-29T01:20:57;100152.19;;;13.62;40.15
50125;BME280;36023;48.670;6.184;2023-01-29T01:23:24;100153.06;;;13.61;40.26
50125;BME280;36023;48.670;6.184;2023-01-29T01:25:50;100149.59;;;13.60;40.19
50125;BME280;36023;48.670;6.184;2023-01-29T01:28:15;100149.59;;;13.60;40.05
50125;BME280;36023;48.670;6.184;2023-01-29T01:30:42;100151.34;;;13.60;40.07
50125;BME280;36023;48.670;6.184;2023-01-29T01:33:07;100148.72;;;13.60;40.19
50125;BME280;36023;48.670;6.184;2023-01-29T01:35:33;100147.88;;;13.59;40.05
50125;BME280;36023;48.670;6.184;2023-01-29T01:37:59;100156.53;;;13.60;40.01
50125;BME280;36023;48.670;6.184;2023-01-29T01:40:25;100157.44;;;13.59;39.90
50125;BME280;36023;48.670;6.184;2023-01-29T01:42:55;100160.88;;;13.59;39.88
50125;BME280;36023;48.670;6.184;2023-01-29T01:48:09;100160.03;;;13.59;39.91
50125;BME280;36023;48.670;6.184;2023-01-29T01:50:44;100159.16;;;13.58;39.76
50125;BME280;36023;48.670;6.184;2023-01-29T01:53:14;100153.09;;;13.58;39.76
50125;BME280;36023;48.670;6.184;2023-01-29T01:55:55;100153.97;;;13.58;39.77
50125;BME280;36023;48.670;6.184;2023-01-29T01:58:27;100160.06;;;13.57;39.53
50125;BME280;36023;48.670;6.184;2023-01-29T02:00:55;100163.53;;;13.58;39.51
50125;BME280;36023;48.670;6.184;2023-01-29T02:03:21;100152.25;;;13.57;39.56
50125;BME280;36023;48.670;6.184;2023-01-29T02:06:07;100161.81;;;13.57;39.52
50125;BME280;36023;48.670;6.184;2023-01-29T02:09:07;100163.56;;;13.56;39.55
50125;BME280;36023;48.670;6.184;2023-01-29T02:11:54;100160.09;;;13.56;39.48
50125;BME280;36023;48.670;6.184;2023-01-29T02:14:19;100157.50;;;13.54;39.41
50125;BME280;36023;48.670;6.184;2023-01-29T02:16:45;100149.69;;;13.56;39.43
50125;BME280;36023;48.670;6.184;2023-01-29T02:22:28;100153.16;;;13.55;39.24
50125;BME280;36023;48.670;6.184;2023-01-29T02:25:07;100151.41;;;13.54;39.12
50125;BME280;36023;48.670;6.184;2023-01-29T02:30:32;100143.66;;;13.52;39.34
50125;BME280;36023;48.670;6.184;2023-01-29T02:33:50;100151.44;;;13.52;39.04
50125;BME280;36023;48.670;6.184;2023-01-29T02:38:48;100148.88;;;13.51;39.22
50125;BME280;36023;48.670;6.184;2023-01-29T02:41:26;100148.88;;;13.51;38.68
50125;BME280;36023;48.670;6.184;2023-01-29T02:47:21;100155.84;;;13.49;38.94
50125;BME280;36023;48.670;6.184;2023-01-29T02:49:56;100155.84;;;13.49;39.03
50125;BME280;36023;48.670;6.184;2023-01-29T02:55:10;100174.97;;;13.48;38.91
50125;BME280;36023;48.670;6.184;2023-01-29T02:57:41;100174.09;;;13.47;38.99
50125;BME280;36023;48.670;6.184;2023-01-29T03:00:17;100174.94;;;13.46;38.83
50125;BME280;36023;48.670;6.184;2023-01-29T03:03:07;100179.31;;;13.46;38.74
50125;BME280;36023;48.670;6.184;2023-01-29T03:05:58;100174.09;;;13.46;38.78
50125;BME280;36023;48.670;6.184;2023-01-29T03:08:52;100176.69;;;13.46;38.73
50125;BME280;36023;48.670;6.184;2023-01-29T03:11:20;100170.66;;;13.44;38.75
50125;BME280;36023;48.670;6.184;2023-01-29T03:13:56;100162.84;;;13.44;38.62
50125;BME280;36023;48.670;6.184;2023-01-29T03:16:36;100160.28;;;13.42;38.76
50125;BME280;36023;48.670;6.184;2023-01-29T03:19:08;100166.34;;;13.43;38.80
50125;BME280;36023;48.670;6.184;2023-01-29T03:21:42;100158.53;;;13.43;38.53
50125;BME280;36023;48.670;6.184;2023-01-29T03:25:03;100159.44;;;13.42;38.53
50125;BME280;36023;48.670;6.184;2023-01-29T03:27:58;100166.38;;;13.41;38.56
50125;BME280;36023;48.670;6.184;2023-01-29T03:30:51;100160.31;;;13.41;38.49
50125;BME280;36023;48.670;6.184;2023-01-29T03:33:47;100164.66;;;13.40;38.38
50125;BME280;36023;48.670;6.184;2023-01-29T03:36:24;100162.94;;;13.39;38.31
50125;BME280;36023;48.670;6.184;2023-01-29T03:39:05;100167.25;;;13.40;38.57
50125;BME280;36023;48.670;6.184;2023-01-29T03:41:35;100167.25;;;13.40;38.57
50125;BME280;36023;48.670;6.184;2023-01-29T03:44:15;100168.13;;;13.41;38.42
50125;BME280;36023;48.670;6.184;2023-01-29T03:46:59;100168.16;;;13.39;38.45
50125;BME280;36023;48.670;6.184;2023-01-29T03:49:37;100160.31;;;13.41;38.32
50125;BME280;36023;48.670;6.184;2023-01-29T03:57:16;100154.28;;;13.38;38.26
50125;BME280;36023;48.670;6.184;2023-01-29T03:59:49;100147.31;;;13.39;38.19
50125;BME280;36023;48.670;6.184;2023-01-29T04:05:17;100143.00;;;13.36;38.21
50125;BME280;36023;48.670;6.184;2023-01-29T04:08:09;100155.13;;;13.37;38.05
50125;BME280;36023;48.670;6.184;2023-01-29T04:10:38;100157.72;;;13.37;37.94
50125;BME280;36023;48.670;6.184;2023-01-29T04:13:09;100158.59;;;13.38;37.82
50125;BME280;36023;48.670;6.184;2023-01-29T04:15:42;100156.88;;;13.37;37.91
50125;BME280;36023;48.670;6.184;2023-01-29T04:18:11;100163.81;;;13.36;37.94
50125;BME280;36023;48.670;6.184;2023-01-29T04:20:56;100162.06;;;13.37;37.82
50125;BME280;36023;48.670;6.184;2023-01-29T04:23:25;100157.75;;;13.36;37.85
50125;BME280;36023;48.670;6.184;2023-01-29T04:26:39;100162.09;;;13.35;37.78
50125;BME280;36023;48.670;6.184;2023-01-29T04:32:14;100163.00;;;13.34;37.79
50125;BME280;36023;48.670;6.184;2023-01-29T04:34:55;100166.47;;;13.33;37.66
50125;BME280;36023;48.670;6.184;2023-01-29T04:37:43;100167.34;;;13.34;37.61
50125;BME280;36023;48.670;6.184;2023-01-29T04:40:25;100163.88;;;13.33;37.56
50125;BME280;36023;48.670;6.184;2023-01-29T04:43:34;100165.63;;;13.33;37.57
50125;BME280;36023;48.670;6.184;2023-01-29T04:46:12;100159.56;;;13.32;37.59
50125;BME280;36023;48.670;6.184;2023-01-29T04:57:04;100147.44;;;13.30;37.42
50125;BME280;36023;48.670;6.184;2023-01-29T04:59:35;100132.69;;;13.30;37.57
50125;BME280;36023;48.670;6.184;2023-01-29T05:02:05;100133.56;;;13.29;37.43
50125;BME280;36023;48.670;6.184;2023-01-29T05:04:33;100142.25;;;13.28;37.45
50125;BME280;36023;48.670;6.184;2023-01-29T05:07:03;100141.41;;;13.28;37.34
50125;BME280;36023;48.670;6.184;2023-01-29T05:09:31;100151.81;;;13.28;37.33
50125;BME280;36023;48.670;6.184;2023-01-29T05:11:59;100161.34;;;13.27;37.46
50125;BME280;36023;48.670;6.184;2023-01-29T05:14:27;100160.50;;;13.27;37.36
50125;BME280;36023;48.670;6.184;2023-01-29T05:16:56;100160.50;;;13.27;37.33
50125;BME280;36023;48.670;6.184;2023-01-29T05:19:28;100156.19;;;13.26;37.43
50125;BME280;36023;48.670;6.184;2023-01-29T05:21:54;100170.94;;;13.25;37.31
50125;BME280;36023;48.670;6.184;2023-01-29T05:24:23;100171.81;;;13.24;37.28
50125;BME280;36023;48.670;6.184;2023-01-29T05:26:51;100178.72;;;13.25;37.32
50125;BME280;36023;48.670;6.184;2023-01-29T05:29:43;100174.41;;;13.24;37.27
50125;BME280;36023;48.670;6.184;2023-01-29T05:32:10;100174.41;;;13.23;37.27
50125;BME280;36023;48.670;6.184;2023-01-29T05:34:36;100170.09;;;13.23;37.21
50125;BME280;36023;48.670;6.184;2023-01-29T05:37:02;100159.69;;;13.23;37.11
50125;BME280;36023;48.670;6.184;2023-01-29T05:39:28;100161.44;;;13.21;37.27
50125;BME280;36023;48.670;6.184;2023-01-29T05:41:53;100162.28;;;13.22;37.23
50125;BME280;36023;48.670;6.184;2023-01-29T05:44:19;100162.28;;;13.22;37.04
50125;BME280;36023;48.670;6.184;2023-01-29T05:46:46;100158.84;;;13.21;37.12
50125;BME280;36023;48.670;6.184;2023-01-29T05:49:13;100155.38;;;13.21;37.02
50125;BME280;36023;48.670;6.184;2023-01-29T05:51:38;100159.72;;;13.20;37.04
50125;BME280;36023;48.670;6.184;2023-01-29T05:54:05;100160.56;;;13.21;36.97
50125;BME280;36023;48.670;6.184;2023-01-29T05:56:31;100155.38;;;13.21;36.85
50125;BME280;36023;48.670;6.184;2023-01-29T05:58:56;100154.50;;;13.20;36.93
50125;BME280;36023;48.670;6.184;2023-01-29T06:01:24;100153.66;;;13.20;37.01
50125;BME280;36023;48.670;6.184;2023-01-29T06:03:50;100152.75;;;13.21;36.90
50125;BME280;36023;48.670;6.184;2023-01-29T06:06:16;100155.38;;;13.19;36.80
50125;BME280;36023;48.670;6.184;2023-01-29T06:08:41;100154.50;;;13.20;37.12
50125;BME280;36023;48.670;6.184;2023-01-29T06:11:10;100162.31;;;13.20;36.93
50125;BME280;36023;48.670;6.184;2023-01-29T06:13:36;100163.16;;;13.19;36.75
50125;BME280;36023;48.670;6.184;2023-01-29T06:16:06;100164.91;;;13.19;36.91
50125;BME280;36023;48.670;6.184;2023-01-29T06:18:32;100161.44;;;13.18;36.96
50125;BME280;36023;48.670;6.184;2023-01-29T06:21:00;100168.38;;;13.19;36.93
50125;BME280;36023;48.670;6.184;2023-01-29T06:23:27;100168.41;;;13.18;36.86
50125;BME280;36023;48.670;6.184;2023-01-29T06:25:53;100158.84;;;13.18;36.66
50125;BME280;36023;48.670;6.184;2023-01-29T06:28:18;100161.44;;;13.18;36.71
50125;BME280;36023;48.670;6.184;2023-01-29T06:30:44;100164.91;;;13.19;36.64
50125;BME280;36023;48.670;6.184;2023-01-29T06:33:11;100164.94;;;13.17;36.75
50125;BME280;36023;48.670;6.184;2023-01-29T06:35:36;100157.13;;;13.17;36.63
50125;BME280;36023;48.670;6.184;2023-01-29T06:38:02;100158.03;;;13.16;36.68
50125;BME280;36023;48.670;6.184;2023-01-29T06:40:27;100158.03;;;13.16;36.74
50125;BME280;36023;48.670;6.184;2023-01-29T06:42:53;100160.63;;;13.16;36.70
50125;BME280;36023;48.670;6.184;2023-01-29T06:45:19;100152.81;;;13.16;36.39
50125;BME280;36023;48.670;6.184;2023-01-29T06:47:46;100164.09;;;13.15;36.46
50125;BME280;36023;48.670;6.184;2023-01-29T06:50:12;100165.81;;;13.16;36.65
50125;BME280;36023;48.670;6.184;2023-01-29T06:52:37;100177.09;;;13.15;36.59
50125;BME280;36023;48.670;6.184;2023-01-29T06:55:03;100183.16;;;13.14;36.44
50125;BME280;36023;48.670;6.184;2023-01-29T06:57:30;100182.31;;;13.14;36.17
50125;BME280;36023;48.670;6.184;2023-01-29T06:59:56;100196.19;;;13.13;36.32
50125;BME280;36023;48.670;6.184;2023-01-29T07:02:22;100202.25;;;13.13;36.46
50125;BME280;36023;48.670;6.184;2023-01-29T07:04:47;100195.34;;;13.12;36.44
50125;BME280;36023;48.670;6.184;2023-01-29T07:07:13;100199.66;;;13.13;36.55
50125;BME280;36023;48.670;6.184;2023-01-29T07:09:40;100203.13;;;13.12;36.65
50125;BME280;36023;48.670;6.184;2023-01-29T07:12:06;100200.53;;;13.12;36.34
50125;BME280;36023;48.670;6.184;2023-01-29T07:14:32;100202.28;;;13.11;36.26
50125;BME280;36023;48.670;6.184;2023-01-29T07:17:00;100197.97;;;13.10;36.46
50125;BME280;36023;48.670;6.184;2023-01-29T07:19:25;100202.28;;;13.11;36.86
50125;BME280;36023;48.670;6.184;2023-01-29T07:21:51;100202.28;;;13.11;36.69
50125;BME280;36023;48.670;6.184;2023-01-29T07:24:17;100202.28;;;13.11;36.83
50125;BME280;36023;48.670;6.184;2023-01-29T07:26:43;100202.28;;;13.11;37.01
50125;BME280;36023;48.670;6.184;2023-01-29T07:29:11;100206.56;;;13.14;37.17
50125;BME280;36023;48.670;6.184;2023-01-29T07:31:37;100208.28;;;13.20;37.22
50125;BME280;36023;48.670;6.184;2023-01-29T07:34:02;100201.31;;;13.23;37.22
50125;BME280;36023;48.670;6.184;2023-01-29T07:36:28;100202.13;;;13.27;37.20
50125;BME280;36023;48.670;6.184;2023-01-29T07:38:54;100204.69;;;13.31;37.21
50125;BME280;36023;48.670;6.184;2023-01-29T07:41:20;100201.13;;;13.35;37.29
50125;BME280;36023;48.670;6.184;2023-01-29T07:43:46;100204.53;;;13.41;37.18
50125;BME280;36023;48.670;6.184;2023-01-29T07:46:14;100207.09;;;13.44;37.01
50125;BME280;36023;48.670;6.184;2023-01-29T07:48:40;100212.28;;;13.45;36.99
50125;BME280;36023;48.670;6.184;2023-01-29T07:51:06;100208.78;;;13.46;37.10
50125;BME280;36023;48.670;6.184;2023-01-29T07:53:33;100210.53;;;13.46;36.86
50125;BME280;36023;48.670;6.184;2023-01-29T07:55:58;100211.41;;;13.45;36.78
50125;BME280;36023;48.670;6.184;2023-01-29T07:58:24;100211.44;;;13.43;36.79
50125;BME280;36023;48.670;6.184;2023-01-29T08:00:50;100226.22;;;13.41;36.72
50125;BME280;36023;48.670;6.184;2023-01-29T08:03:18;100232.34;;;13.38;36.77
50125;BME280;36023;48.670;6.184;2023-01-29T08:05:47;100233.19;;;13.37;36.45
50125;BME280;36023;48.670;6.184;2023-01-29T08:08:13;100232.34;;;13.35;36.70
50125;BME280;36023;48.670;6.184;2023-01-29T08:10:39;100227.19;;;13.34;36.77
50125;BME280;36023;48.670;6.184;2023-01-29T08:13:06;100226.28;;;13.35;36.68
50125;BME280;36023;48.670;6.184;2023-01-29T08:15:33;100218.50;;;13.33;36.53
50125;BME280;36023;48.670;6.184;2023-01-29T08:18:00;100222.00;;;13.32;36.74
50125;BME280;36023;48.670;6.184;2023-01-29T08:20:26;100231.53;;;13.33;36.59
50125;BME280;36023;48.670;6.184;2023-01-29T08:23:00;100231.56;;;13.32;36.73
50125;BME280;36023;48.670;6.184;2023-01-29T08:25:26;100233.28;;;13.31;36.76
50125;BME280;36023;48.670;6.184;2023-01-29T08:27:52;100235.03;;;13.31;36.51
50125;BME280;36023;48.670;6.184;2023-01-29T08:30:18;100248.91;;;13.30;36.58
50125;BME280;36023;48.670;6.184;2023-01-29T08:32:44;100249.78;;;13.29;36.68
50125;BME280;36023;48.670;6.184;2023-01-29T08:35:09;100250.63;;;13.29;36.28
50125;BME280;36023;48.670;6.184;2023-01-29T08:37:35;100251.53;;;13.28;36.63
50125;BME280;36023;48.670;6.184;2023-01-29T08:40:00;100242.00;;;13.27;36.47
50125;BME280;36023;48.670;6.184;2023-01-29T08:42:26;100234.19;;;13.27;36.46
50125;BME280;36023;48.670;6.184;2023-01-29T08:44:53;100234.19;;;13.27;36.64
50125;BME280;36023;48.670;6.184;2023-01-29T08:47:20;100232.44;;;13.28;36.53
50125;BME280;36023;48.670;6.184;2023-01-29T08:49:46;100233.34;;;13.27;36.50
50125;BME280;36023;48.670;6.184;2023-01-29T08:52:11;100237.69;;;13.26;36.57
50125;BME280;36023;48.670;6.184;2023-01-29T08:54:37;100247.22;;;13.26;36.52
50125;BME280;36023;48.670;6.184;2023-01-29T08:57:04;100248.13;;;13.25;36.45
50125;BME280;36023;48.670;6.184;2023-01-29T08:59:29;100256.78;;;13.25;36.39
50125;BME280;36023;48.670;6.184;2023-01-29T09:01:55;100255.91;;;13.25;36.44
50125;BME280;36023;48.670;6.184;2023-01-29T09:04:21;100256.78;;;13.25;36.32
50125;BME280;36023;48.670;6.184;2023-01-29T09:06:47;100260.25;;;13.24;36.49
50125;BME280;36023;48.670;6.184;2023-01-29T09:09:14;100250.75;;;13.23;36.00
50125;BME280;36023;48.670;6.184;2023-01-29T09:11:40;100253.31;;;13.25;36.42
50125;BME280;36023;48.670;6.184;2023-01-29T09:14:06;100257.66;;;13.23;36.52
50125;BME280;36023;48.670;6.184;2023-01-29T09:16:31;100256.81;;;13.24;36.30
50125;BME280;36023;48.670;6.184;2023-01-29T09:18:57;100249.00;;;13.22;36.54
50125;BME280;36023;48.670;6.184;2023-01-29T09:21:23;100241.19;;;13.22;36.32
50125;BME280;36023;48.670;6.184;2023-01-29T09:23:48;100246.38;;;13.22;36.33
50125;BME280;36023;48.670;6.184;2023-01-29T09:26:14;100251.59;;;13.22;36.59
50125;BME280;36023;48.670;6.184;2023-01-29T09:28:40;100244.66;;;13.23;36.55
50125;BME280;36023;48.670;6.184;2023-01-29T09:31:07;100253.34;;;13.22;36.29
50125;BME280;36023;48.670;6.184;2023-01-29T09:33:33;100255.94;;;13.22;36.55
50125;BME280;36023;48.670;6.184;2023-01-29T09:36:01;100251.59;;;13.22;36.75
50125;BME280;36023;48.670;6.184;2023-01-29T09:38:27;100251.59;;;13.22;37.22
50125;BME280;36023;48.670;6.184;2023-01-29T09:40:59;100243.78;;;13.24;38.30
50125;BME280;36023;48.670;6.184;2023-01-29T09:43:39;100235.00;;;13.32;39.58
50125;BME280;36023;48.670;6.184;2023-01-29T09:46:47;100227.13;;;13.38;40.17
50125;BME280;36023;48.670;6.184;2023-01-29T09:49:29;100224.47;;;13.42;40.77
50125;BME280;36023;48.670;6.184;2023-01-29T09:52:01;100227.91;;;13.44;41.07
50125;BME280;36023;48.670;6.184;2023-01-29T09:57:16;100227.06;;;13.43;41.86
50125;BME280;36023;48.670;6.184;2023-01-29T09:59:43;100227.06;;;13.43;42.15
50125;BME280;36023;48.670;6.184;2023-01-29T10:02:37;100222.72;;;13.42;42.17
50125;BME280;36023;48.670;6.184;2023-01-29T10:05:22;100217.56;;;13.41;42.51
50125;BME280;36023;48.670;6.184;2023-01-29T10:24:49;100216.81;;;13.29;42.89
50125;BME280;36023;48.670;6.184;2023-01-29T10:27:17;100219.44;;;13.28;43.07
50125;BME280;36023;48.670;6.184;2023-01-29T10:29:45;100215.09;;;13.28;43.18
50125;BME280;36023;48.670;6.184;2023-01-29T10:32:19;100215.09;;;13.28;42.92
50125;BME280;36023;48.670;6.184;2023-01-29T10:34:58;100215.09;;;13.28;43.15
50125;BME280;36023;48.670;6.184;2023-01-29T10:37:35;100223.78;;;13.27;43.14
50125;BME280;36023;48.670;6.184;2023-01-29T10:42:42;100209.97;;;13.24;43.10
50125;BME280;36023;48.670;6.184;2023-01-29T10:48:15;100196.09;;;13.22;43.11
50125;BME280;36023;48.670;6.184;2023-01-29T10:50:55;100195.22;;;13.23;43.15
50125;BME280;36023;48.670;6.184;2023-01-29T10:53:52;100179.63;;;13.23;43.37
50125;BME280;36023;48.670;6.184;2023-01-29T10:56:29;100170.09;;;13.23;43.42
50125;BME280;36023;48.670;6.184;2023-01-29T10:59:05;100168.34;;;13.24;43.65
50125;BME280;36023;48.670;6.184;2023-01-29T11:01:35;100169.22;;;13.24;43.66
50125;BME280;36023;48.670;6.184;2023-01-29T11:04:03;100167.44;;;13.26;43.86
50125;BME280;36023;48.670;6.184;2023-01-29T11:06:30;100163.94;;;13.29;44.11
50125;BME280;36023;48.670;6.184;2023-01-29T11:12:00;100158.50;;;13.47;44.65
50125;BME280;36023;48.670;6.184;2023-01-29T11:14:50;100169.66;;;13.55;44.85
50125;BME280;36023;48.670;6.184;2023-01-29T11:17:20;100159.13;;;13.63;44.96
50125;BME280;36023;48.670;6.184;2023-01-29T11:19:47;100165.94;;;13.72;44.80
50125;BME280;36023;48.670;6.184;2023-01-29T11:22:18;100157.13;;;13.79;44.91
50125;BME280;36023;48.670;6.184;2023-01-29T11:24:45;100154.44;;;13.83;44.89
50125;BME280;36023;48.670;6.184;2023-01-29T11:27:21;100159.56;;;13.89;44.96
50125;BME280;36023;48.670;6.184;2023-01-29T11:29:48;100149.94;;;13.94;44.76
50125;BME280;36023;48.670;6.184;2023-01-29T11:35:19;100148.91;;;14.03;44.84
50125;BME280;36023;48.670;6.184;2023-01-29T11:37:46;100147.06;;;14.08;44.73
50125;BME280;36023;48.670;6.184;2023-01-29T11:42:48;100143.47;;;14.15;44.79
50125;BME280;36023;48.670;6.184;2023-01-29T11:47:51;100138.13;;;14.23;44.92
50125;BME280;36023;48.670;6.184;2023-01-29T11:50:21;100141.59;;;14.25;44.89
50125;BME280;36023;48.670;6.184;2023-01-29T11:52:47;100125.91;;;14.28;45.05
50125;BME280;36023;48.670;6.184;2023-01-29T11:55:33;100123.22;;;14.31;44.98
50125;BME280;36023;48.670;6.184;2023-01-29T11:58:01;100114.50;;;14.34;44.96
50125;BME280;36023;48.670;6.184;2023-01-29T12:00:33;100111.81;;;14.37;45.04
50125;BME280;36023;48.670;6.184;2023-01-29T12:03:10;100108.28;;;14.39;45.12
50125;BME280;36023;48.670;6.184;2023-01-29T12:05:38;100105.66;;;14.42;45.11
50125;BME280;36023;48.670;6.184;2023-01-29T12:08:16;100109.06;;;14.44;45.12
50125;BME280;36023;48.670;6.184;2023-01-29T12:10:42;100105.56;;;14.48;44.99
50125;BME280;36023;48.670;6.184;2023-01-29T12:15:35;100106.31;;;14.54;45.10
50125;BME280;36023;48.670;6.184;2023-01-29T12:20:40;100096.66;;;14.59;45.26
50125;BME280;36023;48.670;6.184;2023-01-29T12:26:14;100078.34;;;14.63;45.12
50125;BME280;36023;48.670;6.184;2023-01-29T12:31:37;100071.31;;;14.67;45.20
50125;BME280;36023;48.670;6.184;2023-01-29T12:34:45;100064.28;;;14.69;45.14
50125;BME280;36023;48.670;6.184;2023-01-29T12:40:00;100047.72;;;14.73;45.11
50125;BME280;36023;48.670;6.184;2023-01-29T12:42:26;100046.78;;;14.75;45.37
50125;BME280;36023;48.670;6.184;2023-01-29T12:47:37;100039.75;;;14.79;45.30
50125;BME280;36023;48.670;6.184;2023-01-29T12:52:42;100041.41;;;14.83;45.19
50125;BME280;36023;48.670;6.184;2023-01-29T12:55:19;100036.13;;;14.85;45.39
50125;BME280;36023;48.670;6.184;2023-01-29T12:57:57;100035.22;;;14.87;45.37
50125;BME280;36023;48.670;6.184;2023-01-29T13:00:31;100037.00;;;14.87;45.30
50125;BME280;36023;48.670;6.184;2023-01-29T13:03:09;100040.41;;;14.89;45.37
50125;BME280;36023;48.670;6.184;2023-01-29T13:05:45;100036.00;;;14.91;45.35
50125;BME280;36023;48.670;6.184;2023-01-29T13:10:59;100036.81;;;14.94;45.46
50125;BME280;36023;48.670;6.184;2023-01-29T13:15:56;100029.81;;;14.96;45.36
50125;BME280;36023;48.670;6.184;2023-01-29T13:18:53;100030.63;;;14.98;45.44
50125;BME280;36023;48.670;6.184;2023-01-29T13:21:23;100031.44;;;15.00;45.45
50125;BME280;36023;48.670;6.184;2023-01-29T13:23:53;100021.00;;;15.00;45.34
50125;BME280;36023;48.670;6.184;2023-01-29T13:26:21;100015.72;;;15.03;45.39
50125;BME280;36023;48.670;6.184;2023-01-29T13:28:50;100016.59;;;15.04;45.26
50125;BME280;36023;48.670;6.184;2023-01-29T13:31:24;100008.72;;;15.05;45.39
50125;BME280;36023;48.670;6.184;2023-01-29T13:34:19;100018.25;;;15.07;45.52
50125;BME280;36023;48.670;6.184;2023-01-29T13:36:48;100012.13;;;15.08;45.45
50125;BME280;36023;48.670;6.184;2023-01-29T13:39:19;100014.72;;;15.09;45.63
50125;BME280;36023;48.670;6.184;2023-01-29T13:41:48;100015.56;;;15.10;45.42
50125;BME280;36023;48.670;6.184;2023-01-29T13:44:34;100013.84;;;15.10;45.25
50125;BME280;36023;48.670;6.184;2023-01-29T13:47:08;100010.34;;;15.11;45.42
50125;BME280;36023;48.670;6.184;2023-01-29T13:49:43;100012.03;;;15.12;45.55
50125;BME280;36023;48.670;6.184;2023-01-29T13:55:05;99997.22;;;15.14;45.51
50125;BME280;36023;48.670;6.184;2023-01-29T13:57:44;99999.78;;;15.16;45.56
50125;BME280;36023;48.670;6.184;2023-01-29T18:00:25;100004.81;;;15.59;43.91
50125;BME280;36023;48.670;6.184;2023-01-29T18:10:35;100012.59;;;15.60;43.90
50125;BME280;36023;48.670;6.184;2023-01-29T18:13:46;100016.09;;;15.61;44.01
50125;BME280;36023;48.670;6.184;2023-01-29T18:16:13;100028.25;;;15.60;44.04
50125;BME280;36023;48.670;6.184;2023-01-29T18:18:39;100030.00;;;15.60;44.01
50125;BME280;36023;48.670;6.184;2023-01-29T18:21:05;100031.75;;;15.59;43.98
50125;BME280;36023;48.670;6.184;2023-01-29T18:23:32;100035.31;;;15.57;44.08
50125;BME280;36023;48.670;6.184;2023-01-29T18:25:57;100040.56;;;15.55;43.94
50125;BME280;36023;48.670;6.184;2023-01-29T18:28:24;100045.81;;;15.54;44.17
50125;BME280;36023;48.670;6.184;2023-01-29T18:30:50;100043.16;;;15.57;44.70
50125;BME280;36023;48.670;6.184;2023-01-29T18:33:17;100047.44;;;15.59;45.01
50125;BME280;36023;48.670;6.184;2023-01-29T18:35:43;100054.34;;;15.62;45.17
50125;BME280;36023;48.670;6.184;2023-01-29T18:38:10;100055.22;;;15.63;45.28
50125;BME280;36023;48.670;6.184;2023-01-29T18:40:36;100064.75;;;15.64;45.29
50125;BME280;36023;48.670;6.184;2023-01-29T18:43:01;100064.78;;;15.62;45.59
50125;BME280;36023;48.670;6.184;2023-01-29T18:45:29;100056.09;;;15.62;45.59
50125;BME280;36023;48.670;6.184;2023-01-29T18:47:55;100057.88;;;15.59;45.64
50125;BME280;36023;48.670;6.184;2023-01-29T18:50:22;100066.59;;;15.58;45.65
50125;BME280;36023;48.670;6.184;2023-01-29T18:52:51;100068.41;;;15.56;45.63
50125;BME280;36023;48.670;6.184;2023-01-29T18:55:19;100063.19;;;15.55;45.75
50125;BME280;36023;48.670;6.184;2023-01-29T18:57:44;100068.47;;;15.53;45.64
50125;BME280;36023;48.670;6.184;2023-01-29T19:00:13;100059.81;;;15.51;45.73